New Windsor, Illinois
Current Conditions -  °F | °C
As of 6:52 PM on Saturday 20 Dec 2014 (Local Time) from KMLI Reporting Station
Haze Haze  
Wind Chill: 29°   Ceiling: 1700
Heat Index: 34°   Visibility: 6mi
Dew Point: 28°   Wind: 6mph
Humidity: 79%   Direction: 140°SE
Pressure: 30.22"   Gusts: NA
Location:  41.2°N, 90.47°W
Report Text: KMLI 210052Z 14005KT 6SM HZ OVC017 01/M02 A3022 RMK AO2 SLP239 T00111022
Loading
Personal Weather Stations






























Interactive Weather Map New forecast layout! Learn more

10-Day Weather Forecast

Advertisements
Track Severe Weather on mobile